Time;durP1;ratioP1;P1;durP2;ratioP2;P2;SDS_P1;SDS_P2;PMS_P1;PMS_P2;Temp;Humidity;BMP_temperature;BMP_pressure;BME280_temperature;BME280_humidity;BME280_pressure;Samples;Min_cycle;Max_cycle;Signal;HPM_P1;HPM_P2
2024/01/21 00:01:42;;;;;;;;;;;1.10;99.90;;;;;;5118033;28;19907;-80
2024/01/21 00:04:08;;;;;;;;;;;1.00;99.90;;;;;;5118257;28;19949;-79
2024/01/21 00:06:34;;;;;;;;;;;1.00;99.90;;;;;;5116787;28;19915;-80
2024/01/21 00:08:59;;;;;;;;;;;0.90;99.90;;;;;;5116552;28;19908;-78
2024/01/21 00:11:25;;;;;;;;;;;0.90;99.90;;;;;;5116707;28;19908;-80
2024/01/21 00:13:51;;;;;;;;;;;0.90;99.90;;;;;;5117630;28;19907;-78
2024/01/21 00:16:16;;;;;;;;;;;0.90;99.90;;;;;;5114808;28;20006;-78
2024/01/21 00:18:42;;;;;;;;;;;0.90;99.90;;;;;;5116363;28;19992;-78
2024/01/21 00:21:07;;;;;;;;;;;0.90;99.90;;;;;;5116756;28;19939;-78
2024/01/21 00:23:33;;;;;;;;;;;0.90;99.90;;;;;;5117377;28;19991;-77
2024/01/21 00:25:58;;;;;;;;;;;1.00;99.90;;;;;;5116538;28;20011;-78
2024/01/21 00:28:24;;;;;;;;;;;1.10;99.90;;;;;;5117708;28;19904;-78
2024/01/21 00:30:49;;;;;;;;;;;1.10;99.90;;;;;;5117640;28;20007;-79
2024/01/21 00:33:15;;;;;;;;;;;1.20;99.90;;;;;;5110443;28;19916;-78
2024/01/21 00:35:41;;;;;;;;;;;1.20;99.90;;;;;;5117474;28;19914;-78
2024/01/21 00:38:06;;;;;;;;;;;1.30;99.90;;;;;;5116960;28;20245;-79
2024/01/21 00:40:32;;;;;;;;;;;1.20;99.90;;;;;;5117596;27;19915;-79
2024/01/21 00:42:59;;;;;;;;;;;1.10;99.90;;;;;;5117295;28;19911;-80
2024/01/21 00:45:28;;;;;;;;;;;1.10;99.90;;;;;;5117220;28;20384;-79
2024/01/21 00:47:53;;;;;;;;;;;0.90;99.90;;;;;;5117168;28;19911;-77
2024/01/21 00:50:19;;;;;;;;;;;0.90;99.90;;;;;;5108981;28;19904;-81
2024/01/21 00:52:44;;;;;;;;;;;0.90;99.90;;;;;;5112062;28;19910;-80
2024/01/21 00:55:10;;;;;;;;;;;1.10;99.90;;;;;;5115502;28;19911;-81
2024/01/21 00:57:35;;;;;;;;;;;1.00;99.90;;;;;;5116906;28;19969;-78
2024/01/21 01:00:01;;;;;;;;;;;1.10;99.90;;;;;;5117031;27;19953;-80
2024/01/21 01:02:26;;;;;;;;;;;1.10;99.90;;;;;;5116752;28;19914;-80
2024/01/21 01:04:52;;;;;;;;;;;1.10;99.90;;;;;;5116951;28;20295;-80
2024/01/21 01:07:18;;;;;;;;;;;1.10;99.90;;;;;;5116770;28;19911;-79
2024/01/21 01:09:43;;;;;;;;;;;1.20;99.90;;;;;;5117091;28;19904;-79
2024/01/21 01:12:09;;;;;;;;;;;1.10;99.90;;;;;;5115079;28;19983;-80
2024/01/21 01:14:34;;;;;;;;;;;1.20;99.90;;;;;;5116409;28;19907;-80
2024/01/21 01:17:00;;;;;;;;;;;1.20;99.90;;;;;;5113926;28;19904;-79
2024/01/21 01:19:25;;;;;;;;;;;1.20;99.90;;;;;;5116826;28;20465;-79
2024/01/21 01:21:51;;;;;;;;;;;1.30;99.90;;;;;;5116712;28;19915;-78
2024/01/21 01:24:17;;;;;;;;;;;1.20;99.90;;;;;;5116554;28;19969;-79
2024/01/21 01:26:42;;;;;;;;;;;1.40;99.90;;;;;;5116340;28;19911;-79
2024/01/21 01:29:08;;;;;;;;;;;1.60;99.90;;;;;;5115568;28;19971;-81
2024/01/21 01:31:33;;;;;;;;;;;1.70;99.90;;;;;;5113386;28;19904;-82
2024/01/21 01:33:59;;;;;;;;;;;1.70;99.90;;;;;;5117201;28;19903;-82
2024/01/21 01:36:24;;;;;;;;;;;1.70;99.90;;;;;;5114985;28;19917;-84
2024/01/21 01:38:50;;;;;;;;;;;1.70;99.90;;;;;;5116911;28;20287;-80
2024/01/21 01:41:15;;;;;;;;;;;1.70;99.90;;;;;;5115645;28;20370;-80
2024/01/21 01:43:41;;;;;;;;;;;1.70;99.90;;;;;;5116332;28;20283;-84
2024/01/21 01:46:07;;;;;;;;;;;1.70;99.90;;;;;;5104299;28;20010;-83
2024/01/21 01:48:33;;;;;;;;;;;1.80;99.90;;;;;;5108889;28;19908;-84
2024/01/21 01:50:59;;;;;;;;;;;1.70;99.90;;;;;;5119189;28;19911;-84
2024/01/21 01:53:26;;;;;;;;;;;1.60;99.90;;;;;;5121280;28;19904;-85
2024/01/21 01:55:51;;;;;;;;;;;1.60;99.90;;;;;;5115159;28;20383;-85
2024/01/21 01:58:18;;;;;;;;;;;1.60;99.90;;;;;;5116629;28;19908;-83
2024/01/21 02:00:44;;;;;;;;;;;1.50;99.90;;;;;;5105679;28;19985;-84
2024/01/21 02:03:09;;;;;;;;;;;1.50;99.90;;;;;;5116309;28;19915;-84
2024/01/21 02:05:35;;;;;;;;;;;1.50;99.90;;;;;;5116109;28;19908;-84
2024/01/21 02:08:00;;;;;;;;;;;1.40;99.90;;;;;;5120480;28;19908;-84
2024/01/21 02:10:29;;;;;;;;;;;1.40;99.90;;;;;;5115747;28;19908;-84
2024/01/21 02:12:55;;;;;;;;;;;1.40;99.90;;;;;;5117618;28;19908;-84
2024/01/21 02:15:20;;;;;;;;;;;1.60;99.90;;;;;;5104236;28;19908;-86
2024/01/21 02:17:46;;;;;;;;;;;1.70;99.90;;;;;;5106939;28;19904;-86
2024/01/21 02:20:12;;;;;;;;;;;1.60;99.90;;;;;;5115651;28;19904;-88
2024/01/21 02:22:39;;;;;;;;;;;1.50;99.90;;;;;;5111014;28;19904;-87
2024/01/21 02:25:04;;;;;;;;;;;1.50;99.90;;;;;;5116502;28;20002;-87
2024/01/21 02:27:30;;;;;;;;;;;1.40;99.90;;;;;;5120488;27;19973;-86
2024/01/21 02:29:55;;;;;;;;;;;1.40;99.90;;;;;;5120203;28;20020;-86
2024/01/21 02:32:21;;;;;;;;;;;1.30;99.90;;;;;;5119191;28;19904;-86
2024/01/21 02:34:46;;;;;;;;;;;1.20;99.90;;;;;;5120250;28;19908;-82
2024/01/21 02:37:12;;;;;;;;;;;1.20;99.90;;;;;;5109359;28;19904;-87
2024/01/21 02:39:37;;;;;;;;;;;1.10;99.90;;;;;;5115323;28;19911;-86
2024/01/21 02:42:03;;;;;;;;;;;1.10;99.90;;;;;;5122148;28;19903;-83
2024/01/21 02:44:28;;;;;;;;;;;1.10;99.90;;;;;;5119254;28;19908;-84
2024/01/21 02:46:54;;;;;;;;;;;1.20;99.90;;;;;;5118268;28;19915;-83
2024/01/21 02:49:21;;;;;;;;;;;1.20;99.90;;;;;;5119918;28;19908;-84
2024/01/21 02:51:46;;;;;;;;;;;1.20;99.90;;;;;;5116909;28;19910;-84
2024/01/21 02:54:12;;;;;;;;;;;1.20;99.90;;;;;;5119328;28;19904;-84
2024/01/21 02:56:37;;;;;;;;;;;1.10;99.90;;;;;;5119334;28;19922;-84
2024/01/21 02:59:03;;;;;;;;;;;1.00;99.90;;;;;;5119521;28;19938;-86
2024/01/21 03:01:28;;;;;;;;;;;1.00;99.90;;;;;;5119510;28;19904;-84
2024/01/21 03:03:54;;;;;;;;;;;0.90;99.90;;;;;;5115516;28;19908;-85
2024/01/21 03:06:19;;;;;;;;;;;0.90;99.90;;;;;;5117917;28;19937;-84
2024/01/21 03:08:45;;;;;;;;;;;0.90;99.90;;;;;;5119487;28;19912;-86
2024/01/21 03:11:11;;;;;;;;;;;0.90;99.90;;;;;;5120545;27;19937;-85
2024/01/21 03:13:36;;;;;;;;;;;1.00;99.90;;;;;;5121558;28;19904;-86
2024/01/21 03:16:02;;;;;;;;;;;1.00;99.90;;;;;;5121037;28;19907;-87
2024/01/21 03:18:27;;;;;;;;;;;0.90;99.90;;;;;;5116831;28;19907;-88
2024/01/21 03:20:53;;;;;;;;;;;0.80;99.90;;;;;;5121918;28;19958;-88
2024/01/21 03:23:21;;;;;;;;;;;0.80;99.90;;;;;;5115730;28;19911;-86
2024/01/21 03:25:47;;;;;;;;;;;0.80;99.90;;;;;;5106982;28;19911;-85
2024/01/21 03:28:12;;;;;;;;;;;0.80;99.90;;;;;;5119028;27;19905;-86
2024/01/21 03:30:39;;;;;;;;;;;0.80;99.90;;;;;;5119183;28;20332;-86
2024/01/21 03:33:04;;;;;;;;;;;0.80;99.90;;;;;;5115046;28;19937;-86
2024/01/21 03:35:30;;;;;;;;;;;0.80;99.90;;;;;;5105609;28;20352;-85
2024/01/21 03:37:56;;;;;;;;;;;0.80;99.90;;;;;;5118818;28;19982;-86
2024/01/21 03:40:21;;;;;;;;;;;0.80;99.90;;;;;;5109017;28;19904;-87
2024/01/21 03:42:47;;;;;;;;;;;0.80;99.90;;;;;;5107075;28;19911;-87
2024/01/21 03:45:13;;;;;;;;;;;0.80;99.90;;;;;;5105982;28;19911;-88
2024/01/21 03:47:38;;;;;;;;;;;0.70;99.90;;;;;;5104759;28;19904;-87
2024/01/21 03:50:04;;;;;;;;;;;0.70;99.90;;;;;;5118677;28;19904;-87
2024/01/21 03:52:30;;;;;;;;;;;0.70;99.90;;;;;;5118947;28;19904;-87
2024/01/21 03:54:55;;;;;;;;;;;0.80;99.90;;;;;;5119867;28;19912;-87
2024/01/21 03:57:21;;;;;;;;;;;1.00;99.90;;;;;;5118193;28;19968;-87
2024/01/21 03:59:47;;;;;;;;;;;1.00;99.90;;;;;;5105275;28;19943;-86
2024/01/21 04:02:12;;;;;;;;;;;1.20;99.90;;;;;;5116299;28;19903;-86
2024/01/21 04:04:38;;;;;;;;;;;1.30;99.90;;;;;;5115585;28;19910;-87
2024/01/21 04:07:03;;;;;;;;;;;1.40;99.90;;;;;;5113861;28;19903;-87
2024/01/21 04:09:29;;;;;;;;;;;1.50;99.90;;;;;;5105153;28;19904;-87
2024/01/21 04:11:54;;;;;;;;;;;1.40;99.90;;;;;;5116582;28;19904;-87
2024/01/21 04:14:20;;;;;;;;;;;1.40;99.90;;;;;;5115967;28;19929;-87
2024/01/21 04:16:45;;;;;;;;;;;1.30;99.90;;;;;;5114645;28;19911;-87
2024/01/21 04:19:12;;;;;;;;;;;1.30;99.90;;;;;;5106179;28;19908;-87
2024/01/21 04:21:37;;;;;;;;;;;1.20;99.90;;;;;;5105143;28;19936;-87
2024/01/21 04:24:03;;;;;;;;;;;1.20;99.90;;;;;;5112389;28;20316;-86
2024/01/21 04:26:30;;;;;;;;;;;1.20;99.90;;;;;;5118106;28;19948;-86
2024/01/21 04:28:55;;;;;;;;;;;1.10;99.90;;;;;;5112825;28;20006;-89
2024/01/21 04:31:21;;;;;;;;;;;1.00;99.90;;;;;;5113051;28;19991;-88
2024/01/21 04:33:46;;;;;;;;;;;0.90;99.90;;;;;;5102730;28;19926;-87
2024/01/21 04:36:16;;;;;;;;;;;0.90;99.90;;;;;;5114678;28;19930;-89
2024/01/21 04:38:42;;;;;;;;;;;0.90;99.90;;;;;;5106589;28;19904;-86
2024/01/21 04:41:07;;;;;;;;;;;0.80;99.90;;;;;;5113317;28;19975;-88
2024/01/21 04:43:33;;;;;;;;;;;0.80;99.90;;;;;;5104474;28;19914;-86
2024/01/21 04:45:58;;;;;;;;;;;0.80;99.90;;;;;;5118296;27;19930;-86
2024/01/21 04:48:24;;;;;;;;;;;0.80;99.90;;;;;;5104698;28;19915;-88
2024/01/21 04:50:49;;;;;;;;;;;0.80;99.90;;;;;;5115314;27;20394;-88
2024/01/21 04:53:15;;;;;;;;;;;0.70;99.90;;;;;;5109706;28;20398;-88
2024/01/21 04:55:40;;;;;;;;;;;0.70;99.90;;;;;;5113233;28;20394;-86
2024/01/21 04:58:06;;;;;;;;;;;0.80;99.90;;;;;;5118757;28;19903;-87
2024/01/21 05:00:31;;;;;;;;;;;0.80;99.90;;;;;;5118448;28;19904;-88
2024/01/21 05:02:57;;;;;;;;;;;0.80;99.90;;;;;;5118309;28;19904;-86
2024/01/21 05:05:22;;;;;;;;;;;0.80;99.90;;;;;;5115285;28;19908;-88
2024/01/21 05:07:48;;;;;;;;;;;0.90;99.90;;;;;;5107837;28;19915;-89
2024/01/21 05:10:13;;;;;;;;;;;0.90;99.90;;;;;;5105009;28;19908;-85
2024/01/21 05:12:39;;;;;;;;;;;0.80;99.90;;;;;;5106412;28;19904;-89
2024/01/21 05:15:04;;;;;;;;;;;0.70;99.90;;;;;;5116362;28;19907;-89
2024/01/21 05:17:30;;;;;;;;;;;0.60;99.90;;;;;;5107254;28;19903;-88
2024/01/21 05:19:55;;;;;;;;;;;0.50;99.90;;;;;;5106579;28;19926;-87
2024/01/21 05:22:21;;;;;;;;;;;0.50;99.90;;;;;;5105991;28;19926;-88
2024/01/21 05:24:46;;;;;;;;;;;0.50;99.90;;;;;;5115823;28;20281;-85
2024/01/21 05:27:13;;;;;;;;;;;0.50;99.90;;;;;;5114607;28;20275;-88
2024/01/21 05:29:41;;;;;;;;;;;0.50;99.90;;;;;;5115787;28;19914;-88
2024/01/21 05:32:06;;;;;;;;;;;0.50;99.90;;;;;;5109747;28;19904;-82
2024/01/21 05:34:32;;;;;;;;;;;0.50;99.90;;;;;;5114345;28;19911;-84
2024/01/21 05:36:57;;;;;;;;;;;0.50;99.90;;;;;;5114208;28;19907;-83
2024/01/21 05:39:23;;;;;;;;;;;0.60;99.90;;;;;;5116926;28;19903;-85
2024/01/21 05:42:09;;;;;;;;;;;0.70;99.90;;;;;;5112155;28;19908;-85
2024/01/21 05:44:34;;;;;;;;;;;0.90;99.90;;;;;;5109424;28;19914;-84
2024/01/21 05:47:00;;;;;;;;;;;1.10;99.90;;;;;;5109542;28;20367;-88
2024/01/21 05:49:26;;;;;;;;;;;1.10;99.90;;;;;;5112957;28;19908;-87
2024/01/21 05:51:51;;;;;;;;;;;1.10;99.90;;;;;;5113492;28;19925;-84
2024/01/21 05:54:17;;;;;;;;;;;1.10;99.90;;;;;;5116591;28;19904;-84
2024/01/21 05:56:43;;;;;;;;;;;1.30;99.90;;;;;;5112981;28;19922;-87
2024/01/21 05:59:08;;;;;;;;;;;1.30;99.90;;;;;;5101094;28;19904;-86
2024/01/21 06:01:34;;;;;;;;;;;1.40;99.90;;;;;;5105163;28;19915;-88
2024/01/21 06:03:59;;;;;;;;;;;1.60;99.90;;;;;;5113760;28;19908;-83
2024/01/21 06:06:25;;;;;;;;;;;1.60;99.90;;;;;;5106873;28;19912;-86
2024/01/21 06:08:50;;;;;;;;;;;1.80;99.90;;;;;;5109429;28;19904;-88
2024/01/21 06:11:16;;;;;;;;;;;2.00;99.90;;;;;;5103572;28;19904;-84
2024/01/21 06:13:41;;;;;;;;;;;2.10;99.90;;;;;;5114231;28;19904;-86
2024/01/21 06:16:07;;;;;;;;;;;2.20;99.90;;;;;;5111000;28;20367;-85
2024/01/21 06:18:33;;;;;;;;;;;2.30;99.90;;;;;;5116050;28;19911;-83
2024/01/21 06:20:58;;;;;;;;;;;2.30;99.90;;;;;;5115688;28;19968;-84
2024/01/21 06:23:24;;;;;;;;;;;2.50;99.90;;;;;;5098885;28;20002;-81
2024/01/21 06:25:49;;;;;;;;;;;2.70;99.90;;;;;;5091221;28;19919;-83
2024/01/21 06:28:16;;;;;;;;;;;2.80;99.90;;;;;;5106196;28;19912;-82
2024/01/21 06:30:41;;;;;;;;;;;2.70;99.90;;;;;;5090890;28;19908;-84
2024/01/21 06:33:07;;;;;;;;;;;2.70;99.90;;;;;;5091368;28;19905;-83
2024/01/21 06:35:32;;;;;;;;;;;2.70;99.90;;;;;;5091579;28;20483;-84
2024/01/21 06:37:58;;;;;;;;;;;2.60;99.90;;;;;;5091396;28;19903;-82
2024/01/21 06:40:24;;;;;;;;;;;2.80;99.90;;;;;;5091803;28;19911;-81
2024/01/21 06:42:49;;;;;;;;;;;2.80;99.90;;;;;;5091169;28;19961;-83
2024/01/21 06:45:15;;;;;;;;;;;2.70;99.90;;;;;;5091628;28;20004;-82
2024/01/21 06:47:41;;;;;;;;;;;2.70;99.90;;;;;;5092752;28;19929;-81
2024/01/21 06:50:06;;;;;;;;;;;2.80;99.90;;;;;;5091614;28;20295;-82
2024/01/21 06:52:32;;;;;;;;;;;2.80;99.90;;;;;;5090872;28;19966;-82
2024/01/21 06:54:57;;;;;;;;;;;2.80;99.90;;;;;;5101539;27;19911;-82
2024/01/21 06:57:23;;;;;;;;;;;2.90;99.90;;;;;;5110181;28;19952;-81
2024/01/21 06:59:50;;;;;;;;;;;2.80;99.90;;;;;;5094885;28;19908;-83
2024/01/21 07:02:15;;;;;;;;;;;2.90;99.90;;;;;;5095084;28;19956;-81
2024/01/21 07:04:41;;;;;;;;;;;2.90;99.90;;;;;;5095039;28;19939;-83
2024/01/21 07:07:07;;;;;;;;;;;2.90;99.90;;;;;;5094353;28;19959;-83
2024/01/21 07:09:32;;;;;;;;;;;2.90;99.90;;;;;;5094822;28;19984;-83
2024/01/21 07:11:58;;;;;;;;;;;2.90;99.90;;;;;;5094535;28;19944;-81
2024/01/21 07:14:23;;;;;;;;;;;2.90;99.90;;;;;;5094672;28;20006;-86
2024/01/21 07:16:49;;;;;;;;;;;2.90;99.90;;;;;;5109245;28;19976;-79
2024/01/21 07:19:15;;;;;;;;;;;2.90;99.90;;;;;;5093272;28;19954;-81
2024/01/21 07:21:40;;;;;;;;;;;2.90;99.90;;;;;;5092911;28;19908;-84
2024/01/21 07:24:06;;;;;;;;;;;3.10;99.90;;;;;;5097798;28;19911;-82
2024/01/21 07:26:31;;;;;;;;;;;3.20;99.90;;;;;;5099635;28;20875;-85
2024/01/21 07:28:57;;;;;;;;;;;3.10;99.90;;;;;;5097602;28;20379;-81
2024/01/21 07:31:23;;;;;;;;;;;3.00;99.90;;;;;;5099190;28;20555;-81
2024/01/21 07:33:49;;;;;;;;;;;3.10;99.90;;;;;;5102206;28;19908;-82
2024/01/21 07:36:14;;;;;;;;;;;3.10;99.90;;;;;;5097940;28;19912;-83
2024/01/21 07:38:40;;;;;;;;;;;3.00;99.90;;;;;;5102295;28;19959;-82
2024/01/21 07:41:06;;;;;;;;;;;3.10;99.90;;;;;;5104305;28;19958;-82
2024/01/21 07:43:31;;;;;;;;;;;3.00;99.90;;;;;;5092946;28;20056;-83
2024/01/21 07:45:57;;;;;;;;;;;3.10;99.90;;;;;;5099238;27;19915;-84
2024/01/21 07:48:23;;;;;;;;;;;3.20;99.90;;;;;;5114046;28;19915;-83
2024/01/21 07:50:49;;;;;;;;;;;3.20;99.90;;;;;;5100528;28;19914;-86
2024/01/21 07:53:17;;;;;;;;;;;3.20;99.90;;;;;;5100898;27;20388;-86
2024/01/21 07:55:42;;;;;;;;;;;3.30;99.90;;;;;;5101242;28;19942;-84
2024/01/21 07:58:08;;;;;;;;;;;3.50;99.90;;;;;;5093746;28;19908;-84
2024/01/21 08:00:34;;;;;;;;;;;3.50;99.90;;;;;;5102078;28;20318;-85
2024/01/21 08:02:59;;;;;;;;;;;3.60;99.90;;;;;;5093034;28;19908;-83
2024/01/21 08:05:25;;;;;;;;;;;3.70;99.90;;;;;;5092110;28;19912;-83
2024/01/21 08:07:50;;;;;;;;;;;3.70;99.90;;;;;;5092147;28;19908;-83
2024/01/21 08:10:16;;;;;;;;;;;3.70;99.90;;;;;;5092267;28;19911;-84
2024/01/21 08:12:41;;;;;;;;;;;3.80;99.90;;;;;;5093087;28;19915;-86
2024/01/21 08:15:07;;;;;;;;;;;3.80;99.90;;;;;;5096543;28;19928;-84
2024/01/21 08:17:32;;;;;;;;;;;4.00;99.90;;;;;;5092823;28;19908;-85
2024/01/21 08:19:58;;;;;;;;;;;4.00;99.90;;;;;;5093388;28;20526;-83
2024/01/21 08:22:24;;;;;;;;;;;4.10;99.90;;;;;;5100112;28;19908;-86
2024/01/21 08:24:51;;;;;;;;;;;4.30;99.90;;;;;;5097069;28;19904;-83
2024/01/21 08:27:18;;;;;;;;;;;4.40;99.90;;;;;;5094505;28;20315;-84
2024/01/21 08:29:43;;;;;;;;;;;4.50;99.90;;;;;;5102492;28;19908;-85
2024/01/21 08:32:09;;;;;;;;;;;4.50;99.90;;;;;;5100323;28;20328;-85
2024/01/21 08:34:35;;;;;;;;;;;4.60;99.90;;;;;;5100499;28;19937;-83
2024/01/21 08:37:01;;;;;;;;;;;4.80;99.90;;;;;;5092676;28;19966;-84
2024/01/21 08:39:26;;;;;;;;;;;4.80;99.90;;;;;;5093432;28;19904;-82
2024/01/21 08:41:52;;;;;;;;;;;4.80;99.90;;;;;;5094718;28;19957;-83
2024/01/21 08:44:18;;;;;;;;;;;5.00;99.90;;;;;;5103463;28;19946;-86
2024/01/21 08:46:46;;;;;;;;;;;5.00;99.90;;;;;;5113265;28;19904;-86
2024/01/21 08:49:12;;;;;;;;;;;5.10;99.90;;;;;;5114797;28;19953;-86
2024/01/21 08:51:37;;;;;;;;;;;5.20;99.90;;;;;;5115943;27;19903;-86
2024/01/21 08:54:03;;;;;;;;;;;5.30;99.90;;;;;;5115708;28;20451;-86
2024/01/21 08:56:28;;;;;;;;;;;5.40;99.90;;;;;;5117929;28;20529;-84
2024/01/21 08:58:54;;;;;;;;;;;5.30;99.90;;;;;;5115987;28;19912;-81
2024/01/21 09:01:20;;;;;;;;;;;5.50;99.90;;;;;;5117212;28;19907;-89
2024/01/21 09:03:46;;;;;;;;;;;5.40;99.90;;;;;;5115643;28;20386;-89
2024/01/21 09:06:11;;;;;;;;;;;5.50;99.90;;;;;;5116045;28;19904;-84
2024/01/21 09:08:37;;;;;;;;;;;5.60;99.90;;;;;;5115850;28;19904;-84
2024/01/21 09:11:03;;;;;;;;;;;5.60;99.90;;;;;;5117132;28;19911;-81
2024/01/21 09:13:28;;;;;;;;;;;5.80;99.90;;;;;;5117172;28;19938;-80
2024/01/21 09:15:54;;;;;;;;;;;5.80;99.90;;;;;;5114632;28;19917;-83
2024/01/21 09:18:20;;;;;;;;;;;5.80;99.90;;;;;;5116698;28;19912;-82
2024/01/21 09:20:46;;;;;;;;;;;5.90;99.90;;;;;;5117627;28;19904;-92
2024/01/21 09:23:11;;;;;;;;;;;5.90;99.90;;;;;;5116747;27;19957;-81
2024/01/21 09:25:37;;;;;;;;;;;6.10;99.90;;;;;;5117192;28;19964;-82
2024/01/21 09:28:05;;;;;;;;;;;6.20;99.90;;;;;;5114002;28;19956;-84
2024/01/21 09:30:30;;;;;;;;;;;6.20;99.90;;;;;;5116653;28;19915;-81
2024/01/21 09:32:56;;;;;;;;;;;6.30;99.90;;;;;;5114006;28;20376;-82
2024/01/21 09:35:22;;;;;;;;;;;6.30;99.90;;;;;;5115222;28;19959;-82
2024/01/21 09:37:47;;;;;;;;;;;6.40;99.90;;;;;;5115530;28;19915;-84
2024/01/21 09:40:13;;;;;;;;;;;6.50;99.90;;;;;;5115150;28;19903;-86
2024/01/21 09:42:38;;;;;;;;;;;6.60;99.90;;;;;;5116039;28;19904;-87
2024/01/21 09:45:04;;;;;;;;;;;6.60;99.90;;;;;;5116409;28;20010;-82
2024/01/21 09:47:29;;;;;;;;;;;6.70;99.90;;;;;;5116702;28;19911;-87
2024/01/21 09:49:56;;;;;;;;;;;6.70;99.90;;;;;;5114512;28;20716;-88
2024/01/21 09:52:22;;;;;;;;;;;6.80;99.90;;;;;;5115265;28;19907;-81
2024/01/21 09:54:50;;;;;;;;;;;6.90;99.90;;;;;;5117058;28;19904;-81
2024/01/21 09:57:16;;;;;;;;;;;7.00;99.90;;;;;;5116179;28;20422;-80
2024/01/21 09:59:41;;;;;;;;;;;7.00;99.90;;;;;;5115292;28;19907;-83
2024/01/21 10:02:13;;;;;;;;;;;7.10;99.90;;;;;;5115323;28;19908;-87
2024/01/21 10:04:39;;;;;;;;;;;7.20;99.90;;;;;;5116867;28;19903;-85
2024/01/21 10:07:05;;;;;;;;;;;7.30;99.90;;;;;;5114401;28;20016;-82
2024/01/21 10:09:30;;;;;;;;;;;7.40;99.90;;;;;;5105104;28;20018;-83
2024/01/21 10:11:56;;;;;;;;;;;7.50;99.90;;;;;;5103305;28;19958;-80
2024/01/21 10:14:24;;;;;;;;;;;7.60;99.90;;;;;;5116396;28;19908;-78
2024/01/21 10:16:50;;;;;;;;;;;7.60;99.90;;;;;;5110365;28;19967;-81
2024/01/21 10:19:23;;;;;;;;;;;7.60;99.90;;;;;;5115148;28;20393;-80
2024/01/21 10:21:49;;;;;;;;;;;7.60;99.90;;;;;;5116295;28;19904;-82
2024/01/21 10:24:18;;;;;;;;;;;7.70;99.90;;;;;;5115163;28;19904;-77
2024/01/21 10:26:45;;;;;;;;;;;7.80;99.90;;;;;;5101890;28;19904;-79
2024/01/21 10:29:11;;;;;;;;;;;7.90;99.90;;;;;;5121185;28;19904;-89
2024/01/21 10:31:36;;;;;;;;;;;8.00;99.90;;;;;;5120096;28;19915;-85
2024/01/21 10:34:02;;;;;;;;;;;8.00;99.90;;;;;;5120616;28;20286;-82
2024/01/21 10:36:32;;;;;;;;;;;8.10;99.90;;;;;;5119430;27;20014;-80
2024/01/21 10:38:58;;;;;;;;;;;8.20;99.90;;;;;;5118616;28;20278;-79
2024/01/21 10:41:28;;;;;;;;;;;8.10;99.90;;;;;;5118607;28;19957;-86
2024/01/21 10:43:55;;;;;;;;;;;8.20;99.90;;;;;;5119822;28;19908;-81
2024/01/21 10:46:22;;;;;;;;;;;8.20;99.90;;;;;;5118401;28;19910;-81
2024/01/21 10:48:48;;;;;;;;;;;8.20;99.90;;;;;;5120123;28;19908;-82
2024/01/21 10:51:15;;;;;;;;;;;8.20;99.90;;;;;;5119643;28;20367;-79
2024/01/21 10:53:41;;;;;;;;;;;8.20;99.90;;;;;;5119624;28;20291;-80
2024/01/21 10:56:07;;;;;;;;;;;8.20;99.90;;;;;;5119032;28;19915;-85
2024/01/21 10:58:33;;;;;;;;;;;8.40;99.90;;;;;;5119452;28;19915;-80
2024/01/21 11:01:01;;;;;;;;;;;8.40;99.90;;;;;;5119536;28;19908;-87
2024/01/21 11:03:27;;;;;;;;;;;8.50;99.90;;;;;;5119639;28;19910;-81
2024/01/21 11:05:54;;;;;;;;;;;8.60;99.90;;;;;;5119636;28;19929;-85
2024/01/21 11:08:21;;;;;;;;;;;8.80;99.90;;;;;;5119489;28;19956;-89
2024/01/21 11:10:50;;;;;;;;;;;8.90;99.90;;;;;;5118211;28;19903;-83
2024/01/21 11:13:36;;;;;;;;;;;9.00;99.90;;;;;;5119193;28;19903;-85
2024/01/21 11:16:04;;;;;;;;;;;9.20;99.90;;;;;;5107680;28;19907;-84
2024/01/21 11:18:30;;;;;;;;;;;9.40;99.90;;;;;;5102943;28;19912;-84
2024/01/21 11:20:56;;;;;;;;;;;9.70;99.90;;;;;;5093678;28;20406;-84
2024/01/21 11:23:22;;;;;;;;;;;9.90;99.90;;;;;;5094113;28;20292;-85
2024/01/21 11:25:53;;;;;;;;;;;10.10;99.90;;;;;;5095841;28;20007;-89
2024/01/21 11:28:26;;;;;;;;;;;10.30;99.90;;;;;;5095195;28;20673;-84
2024/01/21 11:30:53;;;;;;;;;;;10.40;99.90;;;;;;5100421;28;19986;-83
2024/01/21 11:33:22;;;;;;;;;;;10.50;99.90;;;;;;5107599;28;19908;-84
2024/01/21 11:35:48;;;;;;;;;;;10.50;99.90;;;;;;5095330;28;20003;-86
2024/01/21 11:38:14;;;;;;;;;;;10.50;99.90;;;;;;5092531;28;19940;-85
2024/01/21 11:40:39;;;;;;;;;;;10.50;99.90;;;;;;5095560;28;19947;-84
2024/01/21 11:43:05;;;;;;;;;;;10.50;99.90;;;;;;5095943;28;19934;-88
2024/01/21 11:45:31;;;;;;;;;;;10.50;99.90;;;;;;5095310;28;19911;-88
2024/01/21 11:47:57;;;;;;;;;;;10.60;99.90;;;;;;5105764;28;19912;-86
2024/01/21 11:50:23;;;;;;;;;;;10.50;99.90;;;;;;5093731;28;19946;-88
2024/01/21 11:52:48;;;;;;;;;;;10.50;99.90;;;;;;5094396;28;20482;-88
2024/01/21 11:55:23;;;;;;;;;;;10.50;99.90;;;;;;5093955;28;19939;-90
2024/01/21 11:57:49;;;;;;;;;;;10.50;99.90;;;;;;5095045;28;20376;-89
2024/01/21 12:00:14;;;;;;;;;;;10.40;99.90;;;;;;5100929;28;19908;-87
2024/01/21 12:02:40;;;;;;;;;;;10.30;99.90;;;;;;5094135;28;19915;-90
2024/01/21 12:05:05;;;;;;;;;;;10.10;99.90;;;;;;5096295;28;19937;-89
2024/01/21 12:07:32;;;;;;;;;;;9.90;99.90;;;;;;5094561;28;20390;-89
2024/01/21 12:09:58;;;;;;;;;;;9.80;99.90;;;;;;5099749;28;19933;-87
2024/01/21 12:12:23;;;;;;;;;;;9.80;99.90;;;;;;5099050;28;19904;-88
2024/01/21 12:14:49;;;;;;;;;;;9.70;99.90;;;;;;5097667;28;19908;-86
2024/01/21 12:17:14;;;;;;;;;;;9.70;99.90;;;;;;5094320;28;19912;-86
2024/01/21 12:19:40;;;;;;;;;;;9.70;99.90;;;;;;5093096;28;19911;-87
2024/01/21 12:22:05;;;;;;;;;;;9.70;99.90;;;;;;5098920;28;20000;-89
2024/01/21 12:24:31;;;;;;;;;;;9.70;99.90;;;;;;5095971;28;19908;-86
2024/01/21 12:26:57;;;;;;;;;;;9.70;99.90;;;;;;5095442;28;20291;-88
2024/01/21 12:29:22;;;;;;;;;;;9.70;99.90;;;;;;5095204;28;19915;-84
2024/01/21 12:31:51;;;;;;;;;;;9.70;99.90;;;;;;5098705;28;19908;-88
2024/01/21 12:34:18;;;;;;;;;;;9.70;99.90;;;;;;5094258;28;20439;-87
2024/01/21 12:36:49;;;;;;;;;;;9.70;99.90;;;;;;5093956;28;19972;-86
2024/01/21 12:39:15;;;;;;;;;;;9.70;99.90;;;;;;5102859;28;19908;-87
2024/01/21 12:41:41;;;;;;;;;;;9.70;99.90;;;;;;5094170;28;19904;-89
2024/01/21 12:44:06;;;;;;;;;;;9.60;99.90;;;;;;5097988;28;19914;-89
2024/01/21 12:46:32;;;;;;;;;;;9.60;99.90;;;;;;5101932;28;19908;-88
2024/01/21 12:48:58;;;;;;;;;;;9.60;99.90;;;;;;5097641;28;19947;-85
2024/01/21 12:51:24;;;;;;;;;;;9.60;99.90;;;;;;5099940;28;19931;-86
2024/01/21 12:53:50;;;;;;;;;;;9.60;99.90;;;;;;5100512;28;19912;-86
2024/01/21 12:56:17;;;;;;;;;;;9.70;99.90;;;;;;5105270;28;19930;-85
2024/01/21 12:58:42;;;;;;;;;;;9.60;99.90;;;;;;5097816;28;20714;-87
2024/01/21 13:01:08;;;;;;;;;;;9.60;99.90;;;;;;5109400;28;19904;-88
2024/01/21 13:03:34;;;;;;;;;;;9.70;99.90;;;;;;5105846;28;20380;-88
2024/01/21 13:06:01;;;;;;;;;;;9.70;99.90;;;;;;5100586;28;19999;-86
2024/01/21 13:08:31;;;;;;;;;;;9.70;99.90;;;;;;5093868;28;19964;-87
2024/01/21 13:10:56;;;;;;;;;;;9.70;99.90;;;;;;5093997;28;19908;-87
2024/01/21 13:13:22;;;;;;;;;;;9.70;99.90;;;;;;5102192;28;20370;-85
2024/01/21 13:15:47;;;;;;;;;;;9.70;99.90;;;;;;5097966;28;19955;-87
2024/01/21 13:18:13;;;;;;;;;;;9.70;99.90;;;;;;5094993;28;19904;-85
2024/01/21 13:20:39;;;;;;;;;;;9.70;99.90;;;;;;5098910;28;19911;-88
2024/01/21 13:23:05;;;;;;;;;;;9.80;99.90;;;;;;5109671;28;19907;-88
2024/01/21 13:25:31;;;;;;;;;;;9.80;99.90;;;;;;5102168;28;19915;-88
2024/01/21 13:28:06;;;;;;;;;;;9.80;99.90;;;;;;5105687;28;20295;-87
2024/01/21 13:30:45;;;;;;;;;;;9.80;99.90;;;;;;5101359;28;19908;-86
2024/01/21 13:33:14;;;;;;;;;;;9.90;99.90;;;;;;5093575;28;19923;-88
2024/01/21 13:35:41;;;;;;;;;;;9.90;99.90;;;;;;5093071;28;19948;-89
2024/01/21 13:38:06;;;;;;;;;;;9.90;99.90;;;;;;5105393;28;20463;-87
2024/01/21 13:40:32;;;;;;;;;;;9.90;99.90;;;;;;5092835;28;19904;-87
2024/01/21 13:42:57;;;;;;;;;;;9.90;99.90;;;;;;5103691;28;20010;-87
2024/01/21 13:45:23;;;;;;;;;;;9.90;99.90;;;;;;5104426;28;19933;-85
2024/01/21 13:47:48;;;;;;;;;;;9.90;99.90;;;;;;5105337;28;19904;-87
2024/01/21 13:50:14;;;;;;;;;;;9.90;99.90;;;;;;5109930;27;19914;-87
2024/01/21 13:52:40;;;;;;;;;;;9.90;99.90;;;;;;5113683;27;19908;-90
2024/01/21 13:55:07;;;;;;;;;;;9.90;99.90;;;;;;5101607;28;20359;-86
2024/01/21 13:57:33;;;;;;;;;;;9.90;99.90;;;;;;5104869;28;20030;-85
2024/01/21 13:59:59;;;;;;;;;;;9.80;99.90;;;;;;5094789;28;19943;-87
2024/01/21 14:02:25;;;;;;;;;;;9.80;99.90;;;;;;5113900;28;20002;-88
2024/01/21 14:04:51;;;;;;;;;;;9.70;99.90;;;;;;5112377;28;20403;-89
2024/01/21 14:07:16;;;;;;;;;;;9.80;99.90;;;;;;5109575;28;19925;-88
2024/01/21 14:09:42;;;;;;;;;;;9.70;99.90;;;;;;5120747;28;19963;-90
2024/01/21 14:12:08;;;;;;;;;;;9.70;99.90;;;;;;5120367;28;19998;-87
2024/01/21 14:14:34;;;;;;;;;;;9.70;99.90;;;;;;5119555;28;19935;-85
2024/01/21 14:16:59;;;;;;;;;;;9.80;99.90;;;;;;5111352;28;19916;-87
2024/01/21 14:19:25;;;;;;;;;;;9.80;99.90;;;;;;5122914;27;19907;-86
2024/01/21 14:21:50;;;;;;;;;;;9.70;99.90;;;;;;5118488;28;19907;-84